CheckWX is a tool to help pilots better visualize weather data.  It is not intended as a substitute for an official pre-flight weather briefing.

00:33:59 UTC

KBVY METAR
Beverly Regional Airport
Beverly, Massachusetts, USA
Current

41 mins ago

KBVY 182353Z 31010KT 10SM CLR 09/03 A2984 RMK AO2 SLP100 T00940028 10144 20094 53023
Observed
Oct-18 @ 23:53 UTC
Wind
  • 310° at 10 KTS
Visibility
10 SM
Flight Rules
VFR
Cloud Levels
  • Clear skies
Temperature
C / 48°F
Dewpoint
C / 37°F
Humidity
66%
Altimeter
29.84" Hg
Pressure
1010.52 hPa
Previous

2 hours ago

KBVY 182253Z 29008KT 10SM CLR 11/03 A2981 RMK AO2 SLP091 T01060028
Observed
Oct-18 @ 22:53 UTC
Wind
  • 290° at 8 KTS
Visibility
10 SM
Flight Rules
VFR
Cloud Levels
  • Clear skies
Temperature
11°C / 52°F
Dewpoint
C / 37°F
Humidity
58%
Altimeter
29.81" Hg
Pressure
1009.52 hPa
Previous

3 hours ago

KBVY 182153Z 28007G17KT 10SM CLR 12/03 A2979 RMK AO2 SLP083 T01170033
Observed
Oct-18 @ 21:53 UTC
Wind
  • 280° at 7 KTS
  • Gusting to 17 KTS
Visibility
10 SM
Flight Rules
VFR
Cloud Levels
  • Clear skies
Temperature
12°C / 54°F
Dewpoint
C / 37°F
Humidity
54%
Altimeter
29.79" Hg
Pressure
1008.82 hPa